Rechercher aéroport 
image banner adimage banner ad
image banner ad

SIXE - Aeroclube de Eldorado do Sul Airport

Situé à Eldorado Do Sul, Brazil

ICAO - SIXE, IATA -

Données fournies par Airmate  

Information générale

Coordonnées: S30°3'1" W51°26'37"
Élévation : 32 feet MSL.
Variation magnétique : -17° East
Voir autres Aéroports à Rio Grande do Sul

Données opérationnelles

Accessible au public
Heure actuelle UTC:
Heure actuelle locale:
Météo à : SBPA - Salgado Filho ( 27 km )
METAR: SBPA 301500Z 36006KT 320V050 4000 TS BR FEW008 SCT030 FEW035CB BKN070 22/22 Q1010
TAF: TAF SBPA 300900Z 3012/0112 03005KT 6000 TSRA SCT030 FEW040CB TX24/3018Z TN21/0108Z BECMG 3015/3017 09005KT CAVOK RMK PED
Voir NOTAMs / SUP AIP / TFR affectant cet aéroport [VIEW]
Fréquences de communication: [VIEW]

Pistes:

Identifiant RWYQFULongueur (ft)Largeur (ft)SurfaceLDA (ft)
11524998GRASS
29524998GRASS

Coordonnées de l'aéroport

Adresse: Eldorado Do Sul Brazil

Autres services d'aviation

Clubs d'aviation (sans but lucratif)

Aeroclube De Eldorado Do Sul

Aeroclube De Eldorado Do Sul

Vue satellite de SIXE